Time;durP1;ratioP1;P1;durP2;ratioP2;P2;SDS_P1;SDS_P2;PMS_P1;PMS_P2;Temp;Humidity;BMP_temperature;BMP_pressure;BME280_temperature;BME280_humidity;BME280_pressure;Samples;Min_cycle;Max_cycle;Signal;HPM_P1;HPM_P2
2022/05/12 00:01:13;;;;;;;7.62;6.92;;;;;;;17.33;57.15;99840.72;1830416;77;21016;-80
2022/05/12 00:03:41;;;;;;;8.88;6.78;;;;;;;17.33;57.15;99840.72;1830389;78;21495;-81
2022/05/12 00:06:08;;;;;;;9.43;7.05;;;;;;;17.33;56.88;99840.23;1830348;78;21001;-80
2022/05/12 00:08:36;;;;;;;10.13;6.78;;;;;;;17.29;57.28;99833.94;1830594;77;21210;-81
2022/05/12 00:11:04;;;;;;;7.97;6.95;;;;;;;17.29;57.28;99833.94;1830375;78;21471;-80
2022/05/12 00:13:31;;;;;;;8.98;6.70;;;;;;;17.27;57.05;99833.23;1830451;77;20973;-80
2022/05/12 00:15:58;;;;;;;8.18;6.28;;;;;;;17.24;57.06;99829.48;1830483;78;21502;-81
2022/05/12 00:18:26;;;;;;;7.92;6.72;;;;;;;17.21;57.20;99827.91;1830925;77;21411;-81
2022/05/12 00:20:53;;;;;;;10.63;7.25;;;;;;;17.21;57.26;99822.61;1830694;78;21100;-80
2022/05/12 00:23:26;;;;;;;13.13;7.20;;;;;;;17.20;57.27;99820.91;1830766;77;21034;-80
2022/05/12 00:25:55;;;;;;;9.93;6.30;;;;;;;17.18;57.49;99821.48;1830640;77;20970;-81
2022/05/12 00:28:25;;;;;;;10.35;7.22;;;;;;;17.18;57.49;99821.48;1830524;78;21024;-80
2022/05/12 00:30:56;;;;;;;9.25;6.78;;;;;;;17.17;57.45;99819.81;1830816;77;21059;-81
2022/05/12 00:33:27;;;;;;;7.17;6.47;;;;;;;17.11;57.49;99809.67;1830503;78;21969;-80
2022/05/12 00:35:56;;;;;;;9.73;6.25;;;;;;;17.15;57.42;99817.29;1830723;77;21048;-80
2022/05/12 00:38:24;;;;;;;8.17;6.03;;;;;;;17.11;57.40;99821.11;1830840;77;21486;-81
2022/05/12 00:40:51;;;;;;;9.58;6.78;;;;;;;17.09;57.50;99816.88;1831165;77;21064;-81
2022/05/12 00:43:41;;;;;;;7.17;6.47;;;;;;;17.06;57.52;99818.43;1830543;77;21025;-80
2022/05/12 00:46:15;;;;;;;10.98;6.72;;;;;;;17.04;57.66;99810.59;1830889;77;21141;-80
2022/05/12 00:48:45;;;;;;;9.50;6.47;;;;;;;17.03;57.70;99816.84;1830421;78;21526;-80
2022/05/12 00:51:16;;;;;;;8.63;6.62;;;;;;;17.02;57.70;99815.17;1830893;78;21036;-81
2022/05/12 00:53:45;;;;;;;7.58;6.20;;;;;;;17.03;57.80;99813.36;1830801;77;21514;-80
2022/05/12 00:56:16;;;;;;;8.93;6.10;;;;;;;17.03;57.83;99815.52;1831016;78;21557;-80
2022/05/12 00:58:44;;;;;;;7.42;6.45;;;;;;;17.05;57.77;99810.13;1830578;78;21975;-80
2022/05/12 01:01:11;;;;;;;7.60;6.10;;;;;;;17.06;57.82;99808.67;1830733;78;21001;-80
2022/05/12 01:03:41;;;;;;;7.72;6.15;;;;;;;17.08;57.82;99808.58;1830694;78;21028;-80
2022/05/12 01:06:10;;;;;;;6.85;5.40;;;;;;;17.07;57.74;99806.41;1830913;78;21025;-80
2022/05/12 01:08:39;;;;;;;7.75;5.60;;;;;;;17.07;57.70;99810.39;1830466;77;21510;-80
2022/05/12 01:11:16;;;;;;;6.40;5.62;;;;;;;17.07;57.67;99806.41;1830461;78;21273;-79
2022/05/12 01:13:48;;;;;;;6.62;5.72;;;;;;;17.08;57.60;99805.45;1830777;78;20977;-79
2022/05/12 01:16:42;;;;;;;6.58;5.45;;;;;;;17.09;57.71;99803.64;1830762;77;20994;-80
2022/05/12 01:19:15;;;;;;;7.65;5.33;;;;;;;17.10;57.67;99806.19;1830459;78;20981;-80
2022/05/12 01:21:43;;;;;;;6.78;5.80;;;;;;;17.09;57.64;99801.83;1830750;78;21270;-80
2022/05/12 01:24:10;;;;;;;6.53;5.42;;;;;;;17.08;57.60;99800.63;1830704;78;21586;-79
2022/05/12 01:26:38;;;;;;;7.78;5.40;;;;;;;17.08;57.69;99808.09;1830413;78;21005;-79
2022/05/12 01:29:06;;;;;;;8.45;5.70;;;;;;;17.08;57.60;99798.83;1830753;78;20988;-79
2022/05/12 01:31:34;;;;;;;5.85;5.25;;;;;;;17.09;57.58;99805.80;1830590;78;20989;-79
2022/05/12 01:34:05;;;;;;;6.78;5.42;;;;;;;17.07;57.58;99795.83;1830440;78;20996;-80
2022/05/12 01:36:32;;;;;;;5.45;4.95;;;;;;;17.07;57.60;99793.63;1830517;78;21925;-79
2022/05/12 01:38:59;;;;;;;8.20;5.45;;;;;;;17.10;57.64;99800.89;1830514;78;20958;-79
2022/05/12 01:41:27;;;;;;;5.50;5.00;;;;;;;17.07;57.60;99796.28;1830479;78;21028;-79
2022/05/12 01:43:54;;;;;;;6.85;4.58;;;;;;;17.07;57.60;99796.28;1830603;77;21013;-79
2022/05/12 01:46:22;;;;;;;7.67;5.00;;;;;;;17.13;57.31;99799.34;1830338;77;38573;-79
2022/05/12 01:48:49;;;;;;;7.85;5.40;;;;;;;17.13;57.31;99799.34;1830553;78;21185;-79
2022/05/12 01:51:16;;;;;;;6.37;4.95;;;;;;;17.14;57.39;99798.37;1830395;78;21064;-79
2022/05/12 01:53:43;;;;;;;7.97;5.20;;;;;;;17.11;57.56;99798.59;1830570;77;21021;-79
2022/05/12 01:56:10;;;;;;;6.10;4.80;;;;;;;17.11;57.56;99798.59;1830492;78;21581;-80
2022/05/12 01:58:38;;;;;;;6.20;4.87;;;;;;;17.15;57.39;99804.05;1830762;77;21075;-81
2022/05/12 02:01:06;;;;;;;5.62;4.78;;;;;;;17.16;57.18;99805.73;1830542;78;21289;-80
2022/05/12 02:03:34;;;;;;;6.37;4.55;;;;;;;17.21;57.18;99803.20;1830684;78;20985;-81
2022/05/12 02:06:02;;;;;;;9.03;4.95;;;;;;;17.24;57.23;99797.22;1830507;78;21453;-80
2022/05/12 02:08:29;;;;;;;7.25;4.03;;;;;;;17.24;57.23;99797.22;1830704;78;20982;-80
2022/05/12 02:10:56;;;;;;;5.30;4.12;;;;;;;17.29;57.23;99804.80;1830461;78;21033;-80
2022/05/12 02:13:27;;;;;;;8.38;5.03;;;;;;;17.31;57.17;99801.09;1830812;78;21158;-80
2022/05/12 02:15:56;;;;;;;4.92;4.42;;;;;;;17.37;57.15;99802.43;1830517;77;21526;-80
2022/05/12 02:18:26;;;;;;;6.45;4.40;;;;;;;17.42;57.06;99800.29;1830756;78;20989;-80
2022/05/12 02:20:53;;;;;;;6.40;4.25;;;;;;;17.50;57.01;99807.66;1830536;77;21021;-81
2022/05/12 02:23:21;;;;;;;5.03;4.33;;;;;;;17.57;56.90;99804.45;1830929;78;21091;-80
2022/05/12 02:25:48;;;;;;;8.68;4.17;;;;;;;17.76;56.65;99803.02;1830411;78;21111;-80
2022/05/12 02:28:15;;;;;;;8.15;4.37;;;;;;;17.76;56.65;99803.02;1830643;78;20981;-80
2022/05/12 02:30:42;;;;;;;6.33;3.92;;;;;;;17.82;56.52;99799.96;1830493;78;21013;-80
2022/05/12 02:33:10;;;;;;;5.40;4.22;;;;;;;17.90;56.40;99804.16;1830724;78;20994;-80
2022/05/12 02:35:39;;;;;;;4.67;3.80;;;;;;;17.93;56.24;99788.05;1830457;78;21292;-80
2022/05/12 02:38:07;;;;;;;5.40;3.92;;;;;;;18.02;56.12;99789.98;1830637;77;21091;-80
2022/05/12 02:40:35;;;;;;;7.60;3.90;;;;;;;18.08;55.96;99794.45;1830630;78;20987;-80
2022/05/12 02:43:02;;;;;;;9.03;4.22;;;;;;;18.14;55.85;99792.14;1830670;77;21015;-81
2022/05/12 02:45:29;;;;;;;6.45;3.92;;;;;;;18.22;55.76;99796.86;1830428;77;21628;-80
2022/05/12 02:47:57;;;;;;;4.75;3.80;;;;;;;18.29;55.59;99795.42;1838131;77;21036;-82
2022/05/12 02:50:24;;;;;;;5.53;3.83;;;;;;;18.34;55.42;99796.37;1840184;77;21180;-81
2022/05/12 02:52:51;;;;;;;4.05;3.67;;;;;;;18.33;55.26;99802.16;1841347;77;20965;-81
2022/05/12 02:55:18;;;;;;;4.97;4.12;;;;;;;18.32;55.17;99803.14;1843871;76;21079;-80
2022/05/12 02:57:45;;;;;;;4.67;4.15;;;;;;;18.27;55.07;99794.69;1827919;77;21020;-80
2022/05/12 03:00:17;;;;;;;10.23;4.28;;;;;;;18.22;55.05;99791.55;1815673;77;21031;-80
2022/05/12 03:02:45;;;;;;;5.35;4.12;;;;;;;18.18;55.01;99796.27;1814422;77;21096;-81
2022/05/12 03:05:12;;;;;;;5.95;3.80;;;;;;;18.12;55.00;99798.53;1845514;77;21055;-80
2022/05/12 03:07:39;;;;;;;6.92;3.95;;;;;;;18.05;55.03;99801.67;1825823;77;21011;-80
2022/05/12 03:10:08;;;;;;;5.22;4.20;;;;;;;17.98;55.08;99808.39;1813860;77;21008;-81
2022/05/12 03:12:36;;;;;;;6.60;4.20;;;;;;;17.91;55.12;99810.34;1814199;79;21051;-81
2022/05/12 03:15:05;;;;;;;4.35;3.95;;;;;;;17.83;55.26;99811.76;1830283;77;21101;-80
2022/05/12 03:17:32;;;;;;;4.93;3.97;;;;;;;17.77;55.31;99806.90;1832817;77;21047;-80
2022/05/12 03:20:00;;;;;;;5.85;3.98;;;;;;;17.71;55.36;99806.50;1815440;77;21056;-80
2022/05/12 03:22:27;;;;;;;4.33;3.83;;;;;;;17.58;55.78;99810.59;1842779;77;21016;-81
2022/05/12 03:24:54;;;;;;;4.60;3.83;;;;;;;17.58;55.78;99810.59;1764111;80;21017;-81
2022/05/12 03:27:21;;;;;;;6.42;4.37;;;;;;;17.53;55.70;99801.65;1839795;77;21486;-81
2022/05/12 03:29:48;;;;;;;5.17;4.20;;;;;;;17.50;55.71;99805.86;1767217;80;21601;-80
2022/05/12 03:32:15;;;;;;;4.55;4.15;;;;;;;17.46;55.79;99809.71;1785630;78;21467;-80
2022/05/12 03:34:42;;;;;;;6.58;3.85;;;;;;;17.45;55.88;99811.14;1844247;77;21044;-80
2022/05/12 03:37:10;;;;;;;6.53;3.70;;;;;;;17.42;55.95;99814.86;1764034;81;21016;-80
2022/05/12 03:39:39;;;;;;;3.58;3.27;;;;;;;17.43;56.04;99815.70;1838054;77;21915;-81
2022/05/12 03:42:12;;;;;;;6.03;3.98;;;;;;;17.42;56.09;99809.56;1766527;80;21016;-80
2022/05/12 03:44:50;;;;;;;5.78;3.85;;;;;;;17.45;56.16;99816.44;1840050;77;21055;-81
2022/05/12 03:47:21;;;;;;;6.12;3.95;;;;;;;17.46;56.23;99816.79;1768310;80;20985;-81
2022/05/12 03:49:52;;;;;;;9.98;3.75;;;;;;;17.49;56.24;99820.08;1779620;80;21054;-80
2022/05/12 03:52:20;;;;;;;5.20;3.90;;;;;;;17.52;56.24;99821.17;1776551;80;21106;-81
2022/05/12 03:54:48;;;;;;;7.25;3.90;;;;;;;17.55;56.29;99822.26;1781765;79;21052;-81
2022/05/12 03:57:17;;;;;;;5.20;3.55;;;;;;;17.61;56.28;99826.25;1780729;80;20998;-82
2022/05/12 03:59:48;;;;;;;8.40;3.45;;;;;;;17.68;56.28;99834.56;1780705;80;21048;-82
2022/05/12 04:02:16;;;;;;;4.87;3.42;;;;;;;17.70;56.25;99828.20;1786407;80;21060;-81
2022/05/12 04:04:46;;;;;;;4.33;3.67;;;;;;;17.77;56.20;99837.88;1852541;77;21068;-80
2022/05/12 04:07:20;;;;;;;5.15;3.70;;;;;;;17.83;56.20;99842.73;1848988;77;21455;-81
2022/05/12 04:09:48;;;;;;;3.90;3.50;;;;;;;17.88;56.25;99840.58;1842601;77;22495;-83
2022/05/12 04:12:15;;;;;;;4.30;3.40;;;;;;;17.94;56.23;99836.13;1766859;80;21055;-81
2022/05/12 04:14:43;;;;;;;5.87;3.40;;;;;;;18.01;56.11;99842.66;1839518;77;21067;-81
2022/05/12 04:17:15;;;;;;;5.45;3.60;;;;;;;18.08;56.05;99848.81;1848730;77;21095;-81
2022/05/12 04:19:50;;;;;;;3.55;3.22;;;;;;;18.15;55.97;99850.01;1837797;76;21020;-80
2022/05/12 04:22:15;;;;;;;3.83;2.98;;;;;;;18.21;55.85;99837.13;1837719;77;21068;-82
2022/05/12 04:24:42;;;;;;;5.62;3.45;;;;;;;18.38;55.71;99846.91;1818213;77;21544;-81
2022/05/12 04:27:10;;;;;;;4.37;3.05;;;;;;;18.49;55.57;99846.91;1816716;77;21001;-81
2022/05/12 04:29:43;;;;;;;4.80;3.60;;;;;;;18.61;55.42;99850.40;1817083;77;21188;-81
2022/05/12 04:32:11;;;;;;;4.35;3.27;;;;;;;18.71;55.21;99854.02;1837044;76;21055;-81
2022/05/12 04:37:30;;;;;;;6.20;3.35;;;;;;;18.87;54.90;99855.84;1767600;80;21025;-81
2022/05/12 04:40:08;;;;;;;6.87;3.30;;;;;;;18.92;54.71;99860.28;1798151;79;21025;-81
2022/05/12 04:42:35;;;;;;;4.40;3.15;;;;;;;19.00;54.65;99861.48;1775476;80;21103;-81
2022/05/12 04:45:05;;;;;;;10.23;3.95;;;;;;;19.05;54.48;99868.60;1798097;79;21009;-80
2022/05/12 04:47:34;;;;;;;6.25;3.37;;;;;;;19.07;54.36;99868.84;1776909;80;21556;-82
2022/05/12 04:50:02;;;;;;;5.00;3.35;;;;;;;19.11;54.24;99878.72;1867797;76;20969;-81
2022/05/12 04:52:29;;;;;;;6.70;3.65;;;;;;;19.12;54.14;99874.62;1781178;80;20977;-81
2022/05/12 04:54:56;;;;;;;7.17;3.40;;;;;;;19.14;54.12;99874.48;1865289;76;21993;-79
2022/05/12 04:57:23;;;;;;;5.62;3.33;;;;;;;19.16;54.06;99879.20;1773509;80;21052;-82
2022/05/12 04:59:51;;;;;;;8.10;3.40;;;;;;;19.23;53.97;99891.00;1798025;79;21095;-79
2022/05/12 05:02:18;;;;;;;5.92;2.92;;;;;;;19.34;53.83;99891.45;1773642;79;21044;-83
2022/05/12 05:04:45;;;;;;;5.62;2.87;;;;;;;19.43;53.64;99885.41;1804905;79;20994;-80
2022/05/12 05:07:12;;;;;;;3.95;2.70;;;;;;;19.55;53.46;99892.85;1862307;76;21025;-83
2022/05/12 05:09:41;;;;;;;4.30;2.80;;;;;;;19.72;53.21;99896.80;1805086;79;21017;-80
2022/05/12 05:12:08;;;;;;;5.20;2.58;;;;;;;19.88;53.00;99892.38;1862260;76;21081;-83
2022/05/12 05:14:36;;;;;;;8.25;2.83;;;;;;;20.04;52.61;99892.28;1773358;80;21017;-82
2022/05/12 05:17:03;;;;;;;4.47;2.92;;;;;;;20.24;52.31;99905.22;1798124;79;21510;-82
2022/05/12 05:19:31;;;;;;;5.30;2.65;;;;;;;20.38;52.00;99910.69;1798226;79;21800;-82
2022/05/12 05:21:58;;;;;;;4.75;2.80;;;;;;;20.50;51.65;99918.10;1862135;76;21668;-80
2022/05/12 05:24:25;;;;;;;11.28;2.90;;;;;;;20.61;51.38;99923.38;1773512;80;21045;-79
2022/05/12 05:26:52;;;;;;;7.25;2.95;;;;;;;20.75;51.11;99938.16;1794019;79;21625;-79
2022/05/12 05:29:19;;;;;;;8.20;2.50;;;;;;;20.86;50.54;99946.05;1751400;80;21052;-80
2022/05/12 05:31:46;;;;;;;10.30;2.70;;;;;;;20.99;50.19;99943.67;1732411;81;21111;-80
2022/05/12 05:34:13;;;;;;;7.30;2.22;;;;;;;21.09;49.82;99954.72;1829239;78;20982;-81
2022/05/12 05:36:42;;;;;;;7.03;2.77;;;;;;;21.19;49.42;99957.39;1747304;81;21115;-79
2022/05/12 05:39:26;;;;;;;6.00;3.15;;;;;;;21.26;49.21;99965.22;1826293;77;20970;-82
2022/05/12 05:41:58;;;;;;;5.17;2.47;;;;;;;21.31;48.93;99962.12;1747173;81;21095;-81
2022/05/12 05:44:28;;;;;;;5.53;2.92;;;;;;;21.40;48.69;99984.02;1835565;78;21165;-80
2022/05/12 05:46:55;;;;;;;4.72;2.42;;;;;;;21.44;48.29;99986.74;1835250;78;21063;-80
2022/05/12 05:49:21;;;;;;;9.58;2.40;;;;;;;21.49;48.18;100001.02;1766922;80;21047;-83
2022/05/12 05:54:35;;;;;;;5.33;2.60;;;;;;;21.53;47.57;100008.61;1806917;79;21057;-79
2022/05/12 05:57:03;;;;;;;7.58;2.77;;;;;;;21.52;47.44;100018.06;1759423;80;21125;-79
2022/05/12 05:59:30;;;;;;;6.67;3.42;;;;;;;21.50;47.50;100031.52;1764369;81;21013;-80
2022/05/12 06:01:58;;;;;;;7.08;3.12;;;;;;;21.49;47.63;100033.01;1775225;80;21016;-83
2022/05/12 06:04:26;;;;;;;9.10;3.53;;;;;;;21.44;47.72;100055.23;1800483;79;21507;-80
2022/05/12 06:06:53;;;;;;;7.05;3.90;;;;;;;21.30;48.04;100061.24;1796478;78;21052;-80
2022/05/12 06:09:20;;;;;;;11.33;3.98;;;;;;;21.21;48.43;100072.72;1767929;79;22408;-78
2022/05/12 06:11:48;;;;;;;8.05;3.52;;;;;;;21.05;48.70;100090.51;1762131;80;21069;-79
2022/05/12 06:14:15;;;;;;;10.72;3.42;;;;;;;20.90;48.95;100094.50;1776764;79;21057;-77
2022/05/12 06:16:42;;;;;;;5.92;3.42;;;;;;;20.78;49.42;100093.70;1804479;79;21022;-79
2022/05/12 06:19:09;;;;;;;5.28;3.45;;;;;;;20.72;49.82;100099.55;1796486;79;20981;-79
2022/05/12 06:21:38;;;;;;;8.58;3.50;;;;;;;20.64;50.18;100101.52;1798131;79;21126;-78
2022/05/12 06:24:05;;;;;;;7.37;3.20;;;;;;;20.55;50.15;100112.95;1798172;79;21100;-81
2022/05/12 06:26:33;;;;;;;5.42;3.52;;;;;;;20.42;50.24;100115.74;1798009;79;20993;-79
2022/05/12 06:29:00;;;;;;;6.15;3.62;;;;;;;20.35;50.76;100119.91;1798259;79;21013;-79
2022/05/12 06:31:32;;;;;;;6.42;3.55;;;;;;;20.28;50.87;100134.21;1798041;79;20993;-79
2022/05/12 06:33:58;;;;;;;7.45;3.60;;;;;;;20.20;51.14;100139.77;1797760;79;22042;-79
2022/05/12 06:36:25;;;;;;;7.23;3.80;;;;;;;20.14;51.30;100143.78;1798219;79;21005;-80
2022/05/12 06:38:52;;;;;;;6.08;3.62;;;;;;;20.11;51.43;100143.19;1798047;79;21001;-80
2022/05/12 06:41:19;;;;;;;8.45;3.45;;;;;;;20.07;51.57;100152.41;1798046;79;21495;-80
2022/05/12 06:43:46;;;;;;;10.53;5.75;;;;;;;20.02;51.70;100158.92;1773977;80;21652;-79
2022/05/12 06:46:17;;;;;;;10.40;4.30;;;;;;;20.02;51.97;100178.88;1804988;79;21480;-81
2022/05/12 06:48:49;;;;;;;11.93;4.17;;;;;;;20.01;52.06;100179.86;1793453;79;21233;-80
2022/05/12 06:51:18;;;;;;;4.22;3.45;;;;;;;20.01;52.13;100176.36;1805651;79;21083;-78
2022/05/12 06:53:46;;;;;;;10.05;4.20;;;;;;;20.05;52.44;100185.28;1795614;79;21459;-78
2022/05/12 06:56:14;;;;;;;6.37;3.33;;;;;;;20.10;52.44;100184.92;1795458;79;21227;-78
2022/05/12 06:58:41;;;;;;;8.30;4.37;;;;;;;20.14;52.55;100185.52;1772519;80;21122;-81
2022/05/12 07:01:09;;;;;;;4.97;3.00;;;;;;;20.14;52.31;100189.02;1805699;79;21025;-79
2022/05/12 07:03:37;;;;;;;5.78;3.30;;;;;;;20.10;52.42;100198.72;1789459;79;21005;-80
2022/05/12 07:06:06;;;;;;;5.47;2.98;;;;;;;20.08;52.42;100203.30;1806502;79;21045;-78
2022/05/12 07:08:35;;;;;;;7.17;3.22;;;;;;;20.03;52.65;100193.86;1858818;76;21044;-79
2022/05/12 07:11:02;;;;;;;5.03;3.12;;;;;;;20.09;52.85;100201.84;1837954;77;21555;-79
2022/05/12 07:13:29;;;;;;;7.50;3.20;;;;;;;20.13;52.77;100203.30;1859140;77;21056;-82
2022/05/12 07:15:56;;;;;;;4.65;3.20;;;;;;;20.13;52.77;100209.11;1858795;77;21043;-80
2022/05/12 07:18:23;;;;;;;7.28;2.72;;;;;;;20.08;52.79;100203.30;1773134;80;20989;-79
2022/05/12 07:26:36;;;;;;;3.12;1.67;;;;;;;20.11;52.14;100218.53;1858956;77;21061;-83
2022/05/12 07:29:07;;;;;;;3.10;1.35;;;;;;;20.10;51.58;100226.66;1858967;76;20979;-81
2022/05/12 07:31:34;;;;;;;2.08;1.40;;;;;;;20.13;51.33;100227.25;1774253;80;20937;-79
2022/05/12 07:34:01;;;;;;;8.65;1.70;;;;;;;20.21;51.19;100231.47;1861864;76;21223;-76
2022/05/12 07:36:33;;;;;;;7.03;1.70;;;;;;;20.26;50.83;100234.61;1775540;80;21120;-80
2022/05/12 07:39:02;;;;;;;9.43;1.77;;;;;;;20.27;50.20;100237.63;1789602;79;21021;-79
2022/05/12 07:41:29;;;;;;;4.05;1.42;;;;;;;20.26;50.18;100233.78;1789588;80;21006;-79
2022/05/12 07:43:57;;;;;;;3.83;1.72;;;;;;;20.34;50.08;100239.79;1775089;80;21478;-80
2022/05/12 07:46:28;;;;;;;4.50;1.55;;;;;;;20.43;50.12;100242.57;1806185;78;21031;-80
2022/05/12 07:48:56;;;;;;;3.45;1.40;;;;;;;20.55;49.83;100241.25;1860232;77;22025;-80
2022/05/12 07:51:25;;;;;;;4.33;1.47;;;;;;;20.62;49.48;100249.11;1862021;76;20920;-81
2022/05/12 07:53:52;;;;;;;4.67;1.55;;;;;;;20.70;49.12;100270.14;1775337;80;21427;-79
2022/05/12 07:56:25;;;;;;;4.12;1.45;;;;;;;20.67;48.09;100254.42;1798420;79;21021;-80
2022/05/12 07:58:57;;;;;;;3.33;1.40;;;;;;;20.64;48.18;100277.77;1798225;79;21036;-79
2022/05/12 08:01:25;;;;;;;6.10;1.22;;;;;;;20.58;48.04;100276.45;1798335;79;21923;-79
2022/05/12 08:03:53;;;;;;;5.03;1.05;;;;;;;20.55;48.08;100282.52;1805133;78;21084;-80
2022/05/12 08:06:21;;;;;;;7.92;0.95;;;;;;;20.52;48.13;100276.92;1795884;79;21045;-79
2022/05/12 08:08:50;;;;;;;9.83;1.45;;;;;;;20.48;47.74;100280.33;1772607;81;21573;-79
2022/05/12 08:11:19;;;;;;;3.67;1.20;;;;;;;20.43;47.58;100288.32;1797465;79;21274;-79
2022/05/12 08:13:47;;;;;;;4.30;1.35;;;;;;;20.37;47.58;100292.32;1798165;79;21112;-81
2022/05/12 08:16:18;;;;;;;12.50;1.40;;;;;;;20.38;47.58;100295.82;1773076;80;21438;-79
2022/05/12 08:18:47;;;;;;;4.67;1.27;;;;;;;20.37;47.75;100295.44;1804296;79;20941;-79
2022/05/12 08:21:14;;;;;;;6.97;1.60;;;;;;;20.41;47.62;100291.09;1796167;79;21049;-80
2022/05/12 08:23:43;;;;;;;4.85;1.10;;;;;;;20.43;47.74;100297.64;1773678;80;20993;-79
2022/05/12 08:26:11;;;;;;;6.30;1.10;;;;;;;20.51;47.73;100303.20;1805651;79;21019;-84
2022/05/12 08:28:40;;;;;;;3.80;1.00;;;;;;;20.54;47.03;100305.64;1795536;79;21036;-79
2022/05/12 08:31:07;;;;;;;2.85;1.05;;;;;;;20.57;46.86;100329.84;1804951;79;21017;-81
2022/05/12 08:33:34;;;;;;;4.40;1.00;;;;;;;20.60;46.68;100314.95;1795610;79;21045;-81
2022/05/12 08:36:01;;;;;;;4.08;1.00;;;;;;;20.66;46.15;100308.63;1795978;79;21037;-85
2022/05/12 08:38:31;;;;;;;3.70;1.20;;;;;;;20.72;45.61;100320.61;1796912;79;21118;-85
2022/05/12 08:41:30;;;;;;;4.37;1.17;;;;;;;20.79;45.76;100328.97;1806023;79;21613;-80
2022/05/12 08:44:03;;;;;;;8.30;1.37;;;;;;;20.91;46.06;100345.28;1798084;79;26456;-82
2022/05/12 08:46:49;;;;;;;4.50;1.05;;;;;;;21.10;45.90;100341.97;1798206;79;21221;-81
2022/05/12 08:49:42;;;;;;;4.28;1.00;;;;;;;21.24;46.10;100341.66;1775178;80;21079;-78
2022/05/12 08:52:52;;;;;;;6.28;1.00;;;;;;;21.33;45.79;100352.89;1789476;79;21306;-82
2022/05/12 08:55:33;;;;;;;4.85;1.10;;;;;;;21.24;45.36;100352.33;1789293;80;21041;-82
2022/05/12 08:58:20;;;;;;;6.15;1.00;;;;;;;21.11;45.10;100359.14;1789493;80;21017;-84
2022/05/12 09:01:11;;;;;;;9.55;1.00;;;;;;;21.03;45.03;100370.91;1777921;80;21033;-82
2022/05/12 09:03:59;;;;;;;4.83;0.88;;;;;;;21.01;44.90;100376.03;1789476;79;21037;-83
2022/05/12 09:06:34;;;;;;;8.60;1.32;;;;;;;21.05;45.31;100378.80;1778678;80;21793;-83
2022/05/12 09:09:28;;;;;;;13.68;2.22;;;;;;;21.15;45.21;100383.25;1795917;79;20986;-83
2022/05/12 09:12:16;;;;;;;14.60;2.20;;;;;;;21.17;44.69;100396.44;1757076;80;21399;-84
2022/05/12 09:14:51;;;;;;;13.93;2.00;;;;;;;21.19;44.31;100398.99;1774553;80;21478;-82
2022/05/12 09:17:26;;;;;;;12.80;1.40;;;;;;;21.01;43.40;100409.34;1806797;78;21005;-82
2022/05/12 09:19:53;;;;;;;13.35;1.70;;;;;;;20.86;43.35;100418.06;1776157;79;21151;-85
2022/05/12 09:22:26;;;;;;;9.20;1.72;;;;;;;20.81;43.41;100421.57;1775018;80;21025;-85
2022/05/12 09:24:54;;;;;;;9.78;1.72;;;;;;;20.84;43.56;100422.66;1807338;78;21024;-83
2022/05/12 09:27:32;;;;;;;18.42;2.00;;;;;;;20.84;43.36;100418.66;1798143;79;21016;-84
2022/05/12 09:29:59;;;;;;;15.95;1.40;;;;;;;20.94;43.32;100436.95;1775295;80;21096;-82
2022/05/12 09:32:31;;;;;;;9.48;1.60;;;;;;;20.93;42.92;100441.44;1806780;79;21117;-82
2022/05/12 09:35:21;;;;;;;11.48;1.67;;;;;;;20.96;42.69;100432.84;1798157;79;21029;-83
2022/05/12 09:37:50;;;;;;;18.55;2.15;;;;;;;21.04;42.35;100431.25;1798500;79;22172;-86
2022/05/12 09:40:35;;;;;;;13.83;1.60;;;;;;;21.05;41.90;100446.26;1798474;79;21072;-85
2022/05/12 09:43:03;;;;;;;13.50;1.82;;;;;;;21.11;42.05;100455.09;1774968;80;21013;-85
2022/05/12 09:45:38;;;;;;;17.10;1.40;;;;;;;21.18;41.60;100466.12;1806136;78;21914;-85
2022/05/12 09:48:22;;;;;;;8.65;1.35;;;;;;;21.16;41.43;100469.39;1797948;79;20962;-84
2022/05/12 09:50:51;;;;;;;11.57;1.50;;;;;;;21.21;41.28;100467.70;1766698;80;20985;-83
2022/05/12 09:53:31;;;;;;;11.03;1.40;;;;;;;21.23;40.98;100467.06;1788084;79;21755;-85
2022/05/12 09:56:11;;;;;;;10.55;2.00;;;;;;;21.37;41.15;100477.02;1788279;80;21540;-85
2022/05/12 09:58:46;;;;;;;8.55;1.25;;;;;;;21.48;40.50;100486.82;1771617;80;26697;-78
2022/05/12 10:01:23;;;;;;;14.83;1.40;;;;;;;21.53;40.11;100483.30;1769295;80;21038;-83
2022/05/12 10:09:32;;;;;;;8.98;1.00;;;;;;;21.99;38.84;100496.83;1836224;78;26193;-82
2022/05/12 10:12:25;;;;;;;10.40;1.05;;;;;;;22.14;37.16;100487.16;1836404;78;21086;-85
2022/05/12 10:15:09;;;;;;;8.78;1.20;;;;;;;22.24;37.20;100490.80;1836008;77;20993;-84
2022/05/12 10:17:50;;;;;;;12.10;1.22;;;;;;;22.34;36.64;100499.73;1835966;78;21512;-82
2022/05/12 10:20:21;;;;;;;8.25;1.10;;;;;;;22.41;36.41;100489.36;1836107;77;21056;-83
2022/05/12 10:23:06;;;;;;;8.70;1.15;;;;;;;22.54;35.80;100493.17;1836006;78;21004;-88
2022/05/12 10:26:07;;;;;;;5.37;1.20;;;;;;;22.66;36.45;100497.45;1836496;78;22331;-88
2022/05/12 10:28:48;;;;;;;8.00;1.67;;;;;;;22.96;36.96;100501.15;1835892;78;21028;-90
2022/05/12 10:31:45;;;;;;;5.30;0.90;;;;;;;23.23;36.51;100501.39;1836502;77;21004;-81
2022/05/12 10:34:39;;;;;;;10.30;1.62;;;;;;;23.36;36.38;100513.16;1835106;77;21513;-87
2022/05/12 10:37:54;;;;;;;10.43;1.20;;;;;;;23.54;36.07;100519.55;1836314;78;20988;-84
2022/05/12 10:40:32;;;;;;;7.65;0.90;;;;;;;23.58;35.03;100518.78;1836434;77;21095;-84
2022/05/12 10:43:14;;;;;;;6.95;0.90;;;;;;;23.74;34.90;100519.13;1835953;78;21533;-81
2022/05/12 10:46:24;;;;;;;8.23;0.90;;;;;;;23.97;34.48;100529.56;1835915;78;21027;-82
2022/05/12 10:49:33;;;;;;;7.62;0.80;;;;;;;23.96;34.04;100517.17;1812903;77;20973;-88
2022/05/12 10:52:17;;;;;;;7.50;0.77;;;;;;;24.07;33.87;100522.89;1775585;80;21017;-78
2022/05/12 10:55:28;;;;;;;6.85;1.00;;;;;;;24.29;33.34;100534.64;1797423;79;21081;-86
2022/05/12 10:58:29;;;;;;;6.90;0.60;;;;;;;24.38;33.64;100531.09;1775102;80;20942;-85
2022/05/12 11:01:17;;;;;;;5.37;0.82;;;;;;;24.54;33.09;100542.61;1793861;79;21139;-82
2022/05/12 11:03:58;;;;;;;5.28;0.70;;;;;;;24.37;32.43;100537.95;1775435;80;21044;-79
2022/05/12 11:06:49;;;;;;;7.58;0.90;;;;;;;24.27;31.89;100558.87;1773224;79;20993;-81
2022/05/12 11:09:26;;;;;;;5.05;0.82;;;;;;;24.23;32.10;100542.75;1775042;80;21082;-79
2022/05/12 11:11:56;;;;;;;5.80;0.93;;;;;;;24.42;32.61;100551.78;1775443;80;21092;-80
2022/05/12 11:14:31;;;;;;;8.23;0.90;;;;;;;24.63;32.31;100551.63;1774893;80;20989;-84
2022/05/12 11:17:36;;;;;;;4.95;0.65;;;;;;;24.74;32.74;100562.67;1775455;80;20982;-82
2022/05/12 11:20:25;;;;;;;4.95;0.60;;;;;;;24.84;32.62;100558.14;1774589;80;21526;-83
2022/05/12 11:23:29;;;;;;;8.50;0.88;;;;;;;24.99;32.35;100547.78;1771383;80;21713;-80
2022/05/12 11:26:31;;;;;;;9.38;1.30;;;;;;;25.10;32.30;100554.30;1775147;80;21494;-82
2022/05/12 11:32:30;;;;;;;6.00;1.00;;;;;;;25.28;31.37;100547.72;1836968;77;20977;-83
2022/05/12 11:35:05;;;;;;;5.70;0.82;;;;;;;25.56;31.83;100561.97;1851663;77;21228;-81
2022/05/12 11:37:48;;;;;;;3.60;0.57;;;;;;;25.76;31.01;100570.24;1849785;77;21105;-81
2022/05/12 11:40:48;;;;;;;4.17;0.70;;;;;;;25.64;30.62;100568.78;1848905;77;21062;-82
2022/05/12 11:46:35;;;;;;;6.58;0.62;;;;;;;25.41;30.55;100575.02;1814159;78;21020;-82
2022/05/12 11:49:19;;;;;;;7.60;0.85;;;;;;;25.48;30.73;100560.03;1814047;79;21027;-82
2022/05/12 11:52:14;;;;;;;6.42;0.78;;;;;;;25.62;30.98;100569.92;1814059;79;21102;-84
2022/05/12 11:55:06;;;;;;;5.87;0.60;;;;;;;25.79;31.25;100575.30;1814115;79;21007;-78
2022/05/12 11:57:45;;;;;;;5.35;0.62;;;;;;;25.98;31.48;100587.80;1821424;77;20953;-81
2022/05/12 12:00:36;;;;;;;2.25;0.42;;;;;;;26.11;31.03;100583.41;1844953;77;21540;-80
2022/05/12 12:03:23;;;;;;;3.58;0.53;;;;;;;26.06;30.46;100596.44;1847996;77;21021;-78
2022/05/12 12:05:56;;;;;;;1.87;0.55;;;;;;;25.89;30.31;100593.25;1775360;80;21927;-79
2022/05/12 12:08:40;;;;;;;7.47;0.62;;;;;;;25.86;30.13;100601.61;1798024;79;20966;-78
2022/05/12 12:11:25;;;;;;;2.67;0.57;;;;;;;25.75;30.13;100598.60;1807423;79;20994;-82
2022/05/12 12:13:50;;;;;;;4.50;0.50;;;;;;;25.70;30.13;100590.15;1805078;78;20945;-79
2022/05/12 12:16:25;;;;;;;2.27;0.62;;;;;;;25.75;30.56;100599.44;1798453;79;21056;-80
2022/05/12 12:19:01;;;;;;;0.78;0.40;;;;;;;25.88;30.40;100596.91;1775359;80;21209;-83